sensor_id;sensor_type;location;lat;lon;timestamp;temperature;humidity
30889;DHT22;51092;50.874;7.024;2023-02-28T00:00:09;0.60;60.20
30889;DHT22;51092;50.874;7.024;2023-02-28T00:01:12;0.60;60.30
30889;DHT22;51092;50.874;7.024;2023-02-28T00:02:15;0.60;60.30
30889;DHT22;51092;50.874;7.024;2023-02-28T00:03:18;0.60;60.20
30889;DHT22;51092;50.874;7.024;2023-02-28T00:04:21;0.50;60.40
30889;DHT22;51092;50.874;7.024;2023-02-28T00:05:25;0.50;60.40
30889;DHT22;51092;50.874;7.024;2023-02-28T00:06:27;0.50;60.50
30889;DHT22;51092;50.874;7.024;2023-02-28T00:07:30;0.50;60.50
30889;DHT22;51092;50.874;7.024;2023-02-28T00:08:33;0.50;60.50
30889;DHT22;51092;50.874;7.024;2023-02-28T00:09:36;0.50;60.50
30889;DHT22;51092;50.874;7.024;2023-02-28T00:10:38;0.50;60.60
30889;DHT22;51092;50.874;7.024;2023-02-28T00:11:41;0.40;60.80
30889;DHT22;51092;50.874;7.024;2023-02-28T00:12:44;0.40;60.90
30889;DHT22;51092;50.874;7.024;2023-02-28T00:13:47;0.40;60.90
30889;DHT22;51092;50.874;7.024;2023-02-28T00:14:50;0.40;61.00
30889;DHT22;51092;50.874;7.024;2023-02-28T00:15:59;0.40;61.10
30889;DHT22;51092;50.874;7.024;2023-02-28T00:17:02;0.30;61.30
30889;DHT22;51092;50.874;7.024;2023-02-28T00:18:04;0.30;61.30
30889;DHT22;51092;50.874;7.024;2023-02-28T00:19:06;0.30;61.40
30889;DHT22;51092;50.874;7.024;2023-02-28T00:20:10;0.30;61.30
30889;DHT22;51092;50.874;7.024;2023-02-28T00:21:13;0.30;61.30
30889;DHT22;51092;50.874;7.024;2023-02-28T00:22:16;0.30;61.60
30889;DHT22;51092;50.874;7.024;2023-02-28T00:23:18;0.30;61.40
30889;DHT22;51092;50.874;7.024;2023-02-28T00:24:22;0.30;61.40
30889;DHT22;51092;50.874;7.024;2023-02-28T00:25:25;0.30;61.50
30889;DHT22;51092;50.874;7.024;2023-02-28T00:26:28;0.30;61.50
30889;DHT22;51092;50.874;7.024;2023-02-28T00:27:30;0.30;61.50
30889;DHT22;51092;50.874;7.024;2023-02-28T00:28:31;0.30;61.50
30889;DHT22;51092;50.874;7.024;2023-02-28T00:29:33;0.20;61.70
30889;DHT22;51092;50.874;7.024;2023-02-28T00:30:37;0.20;61.80
30889;DHT22;51092;50.874;7.024;2023-02-28T00:31:40;0.20;61.90
30889;DHT22;51092;50.874;7.024;2023-02-28T00:32:42;0.20;61.80
30889;DHT22;51092;50.874;7.024;2023-02-28T00:33:44;0.10;62.10
30889;DHT22;51092;50.874;7.024;2023-02-28T00:34:46;0.10;62.10
30889;DHT22;51092;50.874;7.024;2023-02-28T00:35:48;0.10;62.30
30889;DHT22;51092;50.874;7.024;2023-02-28T00:36:50;0.10;62.40
30889;DHT22;51092;50.874;7.024;2023-02-28T00:37:52;0.00;62.60
30889;DHT22;51092;50.874;7.024;2023-02-28T00:38:54;0.00;62.60
30889;DHT22;51092;50.874;7.024;2023-02-28T00:39:58;0.00;62.80
30889;DHT22;51092;50.874;7.024;2023-02-28T00:40:59;0.00;62.90
30889;DHT22;51092;50.874;7.024;2023-02-28T00:42:06;0.00;62.80
30889;DHT22;51092;50.874;7.024;2023-02-28T00:43:08;-0.10;63.00
30889;DHT22;51092;50.874;7.024;2023-02-28T00:44:11;-0.10;63.00
30889;DHT22;51092;50.874;7.024;2023-02-28T00:45:12;0.00;62.80
30889;DHT22;51092;50.874;7.024;2023-02-28T00:46:15;0.00;62.80
30889;DHT22;51092;50.874;7.024;2023-02-28T00:47:16;0.00;62.70
30889;DHT22;51092;50.874;7.024;2023-02-28T00:48:19;0.00;62.70
30889;DHT22;51092;50.874;7.024;2023-02-28T00:49:21;0.00;62.70
30889;DHT22;51092;50.874;7.024;2023-02-28T00:50:26;-0.10;62.90
30889;DHT22;51092;50.874;7.024;2023-02-28T00:51:27;0.00;62.80
30889;DHT22;51092;50.874;7.024;2023-02-28T00:52:30;-0.10;62.90
30889;DHT22;51092;50.874;7.024;2023-02-28T00:53:32;-0.10;62.90
30889;DHT22;51092;50.874;7.024;2023-02-28T00:54:34;-0.10;63.00
30889;DHT22;51092;50.874;7.024;2023-02-28T00:55:38;0.00;62.70
30889;DHT22;51092;50.874;7.024;2023-02-28T00:56:41;0.00;62.60
30889;DHT22;51092;50.874;7.024;2023-02-28T00:57:42;0.00;62.60
30889;DHT22;51092;50.874;7.024;2023-02-28T00:58:45;0.00;62.60
30889;DHT22;51092;50.874;7.024;2023-02-28T00:59:46;0.00;62.60
30889;DHT22;51092;50.874;7.024;2023-02-28T01:00:52;0.00;62.50
30889;DHT22;51092;50.874;7.024;2023-02-28T01:01:53;0.00;62.30
30889;DHT22;51092;50.874;7.024;2023-02-28T01:02:56;0.00;62.30
30889;DHT22;51092;50.874;7.024;2023-02-28T01:03:58;0.10;62.00
30889;DHT22;51092;50.874;7.024;2023-02-28T01:05:00;0.10;61.90
30889;DHT22;51092;50.874;7.024;2023-02-28T01:06:03;0.20;61.50
30889;DHT22;51092;50.874;7.024;2023-02-28T01:07:05;0.10;61.70
30889;DHT22;51092;50.874;7.024;2023-02-28T01:08:07;0.10;61.70
30889;DHT22;51092;50.874;7.024;2023-02-28T01:09:09;0.10;61.80
30889;DHT22;51092;50.874;7.024;2023-02-28T01:10:11;0.10;61.70
30889;DHT22;51092;50.874;7.024;2023-02-28T01:11:16;0.10;61.70
30889;DHT22;51092;50.874;7.024;2023-02-28T01:12:18;0.10;61.70
30889;DHT22;51092;50.874;7.024;2023-02-28T01:13:20;0.10;61.70
30889;DHT22;51092;50.874;7.024;2023-02-28T01:14:24;0.10;61.70
30889;DHT22;51092;50.874;7.024;2023-02-28T01:15:25;0.10;61.70
30889;DHT22;51092;50.874;7.024;2023-02-28T01:16:28;0.10;61.60
30889;DHT22;51092;50.874;7.024;2023-02-28T01:17:29;0.10;61.50
30889;DHT22;51092;50.874;7.024;2023-02-28T01:18:32;0.10;61.60
30889;DHT22;51092;50.874;7.024;2023-02-28T01:19:34;0.20;61.30
30889;DHT22;51092;50.874;7.024;2023-02-28T01:20:36;0.20;61.30
30889;DHT22;51092;50.874;7.024;2023-02-28T01:21:38;0.10;61.50
30889;DHT22;51092;50.874;7.024;2023-02-28T01:22:41;0.10;61.60
30889;DHT22;51092;50.874;7.024;2023-02-28T01:23:43;0.10;61.60
30889;DHT22;51092;50.874;7.024;2023-02-28T01:24:45;0.10;61.60
30889;DHT22;51092;50.874;7.024;2023-02-28T01:25:47;0.10;61.50
30889;DHT22;51092;50.874;7.024;2023-02-28T01:26:51;0.10;61.60
30889;DHT22;51092;50.874;7.024;2023-02-28T01:27:53;0.10;61.60
30889;DHT22;51092;50.874;7.024;2023-02-28T01:28:55;0.10;61.50
30889;DHT22;51092;50.874;7.024;2023-02-28T01:29:58;0.10;61.50
30889;DHT22;51092;50.874;7.024;2023-02-28T01:31:00;0.00;61.70
30889;DHT22;51092;50.874;7.024;2023-02-28T01:32:02;0.00;61.80
30889;DHT22;51092;50.874;7.024;2023-02-28T01:33:04;0.00;61.90
30889;DHT22;51092;50.874;7.024;2023-02-28T01:34:06;0.00;61.90
30889;DHT22;51092;50.874;7.024;2023-02-28T01:35:08;0.00;61.90
30889;DHT22;51092;50.874;7.024;2023-02-28T01:36:13;0.00;62.00
30889;DHT22;51092;50.874;7.024;2023-02-28T01:37:15;0.00;62.00
30889;DHT22;51092;50.874;7.024;2023-02-28T01:38:17;0.00;62.00
30889;DHT22;51092;50.874;7.024;2023-02-28T01:39:19;0.00;62.10
30889;DHT22;51092;50.874;7.024;2023-02-28T01:40:22;0.00;62.10
30889;DHT22;51092;50.874;7.024;2023-02-28T01:41:27;0.00;62.20
30889;DHT22;51092;50.874;7.024;2023-02-28T01:42:30;0.00;62.20
30889;DHT22;51092;50.874;7.024;2023-02-28T01:43:53;0.00;62.10
30889;DHT22;51092;50.874;7.024;2023-02-28T01:44:59;-0.10;62.20
30889;DHT22;51092;50.874;7.024;2023-02-28T01:46:02;-0.10;62.30
30889;DHT22;51092;50.874;7.024;2023-02-28T01:47:04;-0.10;62.30
30889;DHT22;51092;50.874;7.024;2023-02-28T01:48:08;-0.10;62.20
30889;DHT22;51092;50.874;7.024;2023-02-28T01:49:14;-0.10;62.30
30889;DHT22;51092;50.874;7.024;2023-02-28T01:50:19;0.00;62.00
30889;DHT22;51092;50.874;7.024;2023-02-28T01:51:23;0.00;62.00
30889;DHT22;51092;50.874;7.024;2023-02-28T01:52:28;0.00;61.90
30889;DHT22;51092;50.874;7.024;2023-02-28T01:53:33;0.00;61.90
30889;DHT22;51092;50.874;7.024;2023-02-28T01:54:36;0.00;61.80
30889;DHT22;51092;50.874;7.024;2023-02-28T01:55:39;0.00;61.90
30889;DHT22;51092;50.874;7.024;2023-02-28T01:56:44;0.00;61.80
30889;DHT22;51092;50.874;7.024;2023-02-28T01:57:50;0.00;61.80
30889;DHT22;51092;50.874;7.024;2023-02-28T01:58:54;0.00;61.80
30889;DHT22;51092;50.874;7.024;2023-02-28T01:59:59;0.00;61.70
30889;DHT22;51092;50.874;7.024;2023-02-28T02:01:05;0.00;61.60
30889;DHT22;51092;50.874;7.024;2023-02-28T02:02:12;0.00;61.50
30889;DHT22;51092;50.874;7.024;2023-02-28T02:03:16;0.00;61.50
30889;DHT22;51092;50.874;7.024;2023-02-28T02:04:23;0.00;61.50
30889;DHT22;51092;50.874;7.024;2023-02-28T02:05:29;0.00;61.50
30889;DHT22;51092;50.874;7.024;2023-02-28T02:06:37;0.00;61.50
30889;DHT22;51092;50.874;7.024;2023-02-28T02:07:41;0.10;61.20
30889;DHT22;51092;50.874;7.024;2023-02-28T02:08:47;0.10;61.20
30889;DHT22;51092;50.874;7.024;2023-02-28T02:09:48;0.00;61.30
30889;DHT22;51092;50.874;7.024;2023-02-28T02:10:52;0.10;61.20
30889;DHT22;51092;50.874;7.024;2023-02-28T02:11:56;0.00;61.40
30889;DHT22;51092;50.874;7.024;2023-02-28T02:13:22;0.00;61.30
30889;DHT22;51092;50.874;7.024;2023-02-28T02:14:32;0.00;61.30
30889;DHT22;51092;50.874;7.024;2023-02-28T02:15:44;0.00;61.30
30889;DHT22;51092;50.874;7.024;2023-02-28T02:16:58;0.00;61.40
30889;DHT22;51092;50.874;7.024;2023-02-28T02:18:07;-0.10;61.70
30889;DHT22;51092;50.874;7.024;2023-02-28T02:19:21;-0.10;61.80
30889;DHT22;51092;50.874;7.024;2023-02-28T02:22:33;-0.20;62.20
30889;DHT22;51092;50.874;7.024;2023-02-28T02:24:19;-0.20;62.20
30889;DHT22;51092;50.874;7.024;2023-02-28T02:25:28;-0.30;62.50
30889;DHT22;51092;50.874;7.024;2023-02-28T02:26:55;-0.30;62.60
30889;DHT22;51092;50.874;7.024;2023-02-28T02:28:25;-0.30;62.90
30889;DHT22;51092;50.874;7.024;2023-02-28T02:30:05;-0.30;63.00
30889;DHT22;51092;50.874;7.024;2023-02-28T02:31:39;-0.30;62.90
30889;DHT22;51092;50.874;7.024;2023-02-28T02:34:34;-0.40;63.20
30889;DHT22;51092;50.874;7.024;2023-02-28T02:35:43;-0.40;63.20
30889;DHT22;51092;50.874;7.024;2023-02-28T02:36:51;-0.40;63.30
30889;DHT22;51092;50.874;7.024;2023-02-28T02:38:00;-0.40;63.30
30889;DHT22;51092;50.874;7.024;2023-02-28T02:39:09;-0.40;63.30
30889;DHT22;51092;50.874;7.024;2023-02-28T02:40:16;-0.40;63.20
30889;DHT22;51092;50.874;7.024;2023-02-28T02:41:24;-0.50;63.40
30889;DHT22;51092;50.874;7.024;2023-02-28T02:42:36;-0.50;63.60
30889;DHT22;51092;50.874;7.024;2023-02-28T02:43:44;-0.50;63.60
30889;DHT22;51092;50.874;7.024;2023-02-28T02:44:50;-0.50;63.70
30889;DHT22;51092;50.874;7.024;2023-02-28T02:45:57;-0.50;63.80
30889;DHT22;51092;50.874;7.024;2023-02-28T02:47:06;-0.50;63.60
30889;DHT22;51092;50.874;7.024;2023-02-28T02:48:13;-0.50;63.70
30889;DHT22;51092;50.874;7.024;2023-02-28T02:49:20;-0.60;63.90
30889;DHT22;51092;50.874;7.024;2023-02-28T02:50:28;-0.60;64.00
30889;DHT22;51092;50.874;7.024;2023-02-28T02:51:33;-0.60;64.00
30889;DHT22;51092;50.874;7.024;2023-02-28T02:52:40;-0.60;64.00
30889;DHT22;51092;50.874;7.024;2023-02-28T02:53:47;-0.60;63.90
30889;DHT22;51092;50.874;7.024;2023-02-28T02:54:52;-0.60;64.00
30889;DHT22;51092;50.874;7.024;2023-02-28T02:55:58;-0.60;63.70
30889;DHT22;51092;50.874;7.024;2023-02-28T02:57:04;-0.60;63.70
30889;DHT22;51092;50.874;7.024;2023-02-28T02:58:10;-0.60;63.60
30889;DHT22;51092;50.874;7.024;2023-02-28T02:59:14;-0.50;63.20
30889;DHT22;51092;50.874;7.024;2023-02-28T03:00:26;-0.50;63.40
30889;DHT22;51092;50.874;7.024;2023-02-28T03:01:30;-0.50;63.20
30889;DHT22;51092;50.874;7.024;2023-02-28T03:02:34;-0.50;63.20
30889;DHT22;51092;50.874;7.024;2023-02-28T03:03:37;-0.60;63.30
30889;DHT22;51092;50.874;7.024;2023-02-28T03:04:43;-0.60;63.20
30889;DHT22;51092;50.874;7.024;2023-02-28T03:05:50;-0.50;62.90
30889;DHT22;51092;50.874;7.024;2023-02-28T03:06:53;-0.50;62.90
30889;DHT22;51092;50.874;7.024;2023-02-28T03:07:55;-0.60;63.00
30889;DHT22;51092;50.874;7.024;2023-02-28T03:08:59;-0.60;63.00
30889;DHT22;51092;50.874;7.024;2023-02-28T03:10:01;-0.60;62.80
30889;DHT22;51092;50.874;7.024;2023-02-28T03:11:06;-0.60;62.80
30889;DHT22;51092;50.874;7.024;2023-02-28T03:12:12;-0.60;62.80
30889;DHT22;51092;50.874;7.024;2023-02-28T03:14:51;-0.60;62.80
30889;DHT22;51092;50.874;7.024;2023-02-28T03:17:30;-0.60;62.50
30889;DHT22;51092;50.874;7.024;2023-02-28T03:18:41;-0.50;62.30
30889;DHT22;51092;50.874;7.024;2023-02-28T03:19:50;-0.60;62.30
30889;DHT22;51092;50.874;7.024;2023-02-28T03:21:00;-0.60;62.40
30889;DHT22;51092;50.874;7.024;2023-02-28T03:22:16;-0.60;62.40
30889;DHT22;51092;50.874;7.024;2023-02-28T03:23:24;-0.60;62.30
30889;DHT22;51092;50.874;7.024;2023-02-28T03:24:34;-0.60;62.30
30889;DHT22;51092;50.874;7.024;2023-02-28T03:25:52;-0.70;62.50
30889;DHT22;51092;50.874;7.024;2023-02-28T03:26:57;-0.70;62.50
30889;DHT22;51092;50.874;7.024;2023-02-28T03:28:08;-0.70;62.50
30889;DHT22;51092;50.874;7.024;2023-02-28T03:29:16;-0.70;62.40
30889;DHT22;51092;50.874;7.024;2023-02-28T03:30:25;-0.70;62.30
30889;DHT22;51092;50.874;7.024;2023-02-28T03:31:32;-0.70;62.20
30889;DHT22;51092;50.874;7.024;2023-02-28T03:32:39;-0.70;62.30
30889;DHT22;51092;50.874;7.024;2023-02-28T03:33:46;-0.70;62.20
30889;DHT22;51092;50.874;7.024;2023-02-28T03:35:00;-0.70;62.10
30889;DHT22;51092;50.874;7.024;2023-02-28T03:36:09;-0.70;62.10
30889;DHT22;51092;50.874;7.024;2023-02-28T03:37:16;-0.70;62.10
30889;DHT22;51092;50.874;7.024;2023-02-28T03:38:24;-0.70;62.10
30889;DHT22;51092;50.874;7.024;2023-02-28T03:39:30;-0.70;62.10
30889;DHT22;51092;50.874;7.024;2023-02-28T03:40:37;-0.70;62.10
30889;DHT22;51092;50.874;7.024;2023-02-28T03:41:43;-0.70;62.10
30889;DHT22;51092;50.874;7.024;2023-02-28T03:42:54;-0.70;62.10
30889;DHT22;51092;50.874;7.024;2023-02-28T03:44:00;-0.70;62.10
30889;DHT22;51092;50.874;7.024;2023-02-28T03:45:05;-0.80;62.30
30889;DHT22;51092;50.874;7.024;2023-02-28T03:46:12;-0.80;62.30
30889;DHT22;51092;50.874;7.024;2023-02-28T03:47:21;-0.80;62.20
30889;DHT22;51092;50.874;7.024;2023-02-28T03:48:30;-0.80;62.10
30889;DHT22;51092;50.874;7.024;2023-02-28T03:49:35;-0.80;62.40
30889;DHT22;51092;50.874;7.024;2023-02-28T03:50:40;-0.90;62.70
30889;DHT22;51092;50.874;7.024;2023-02-28T03:51:45;-0.90;62.90
30889;DHT22;51092;50.874;7.024;2023-02-28T03:52:51;-0.90;62.90
30889;DHT22;51092;50.874;7.024;2023-02-28T03:53:57;-0.90;62.80
30889;DHT22;51092;50.874;7.024;2023-02-28T03:55:03;-1.00;62.90
30889;DHT22;51092;50.874;7.024;2023-02-28T03:56:13;-1.00;63.00
30889;DHT22;51092;50.874;7.024;2023-02-28T03:57:22;-1.00;63.00
30889;DHT22;51092;50.874;7.024;2023-02-28T03:58:29;-1.00;62.90
30889;DHT22;51092;50.874;7.024;2023-02-28T03:59:34;-1.00;62.90
30889;DHT22;51092;50.874;7.024;2023-02-28T04:00:41;-1.00;63.00
30889;DHT22;51092;50.874;7.024;2023-02-28T04:01:47;-1.00;63.00
30889;DHT22;51092;50.874;7.024;2023-02-28T04:02:49;-1.00;62.90
30889;DHT22;51092;50.874;7.024;2023-02-28T04:03:53;-1.00;63.00
30889;DHT22;51092;50.874;7.024;2023-02-28T04:04:55;-1.00;63.00
30889;DHT22;51092;50.874;7.024;2023-02-28T04:05:58;-1.00;63.00
30889;DHT22;51092;50.874;7.024;2023-02-28T04:07:05;-1.00;62.90
30889;DHT22;51092;50.874;7.024;2023-02-28T04:08:08;-1.00;62.90
30889;DHT22;51092;50.874;7.024;2023-02-28T04:09:12;-1.00;62.90
30889;DHT22;51092;50.874;7.024;2023-02-28T04:10:15;-1.00;62.90
30889;DHT22;51092;50.874;7.024;2023-02-28T04:11:21;-0.90;62.30
30889;DHT22;51092;50.874;7.024;2023-02-28T04:12:24;-1.00;62.50
30889;DHT22;51092;50.874;7.024;2023-02-28T04:13:26;-1.00;62.60
30889;DHT22;51092;50.874;7.024;2023-02-28T04:14:28;-1.00;62.50
30889;DHT22;51092;50.874;7.024;2023-02-28T04:15:29;-1.00;62.50
30889;DHT22;51092;50.874;7.024;2023-02-28T04:16:34;-1.00;62.50
30889;DHT22;51092;50.874;7.024;2023-02-28T04:17:36;-1.00;62.50
30889;DHT22;51092;50.874;7.024;2023-02-28T04:18:39;-1.00;62.40
30889;DHT22;51092;50.874;7.024;2023-02-28T04:19:41;-1.00;62.50
30889;DHT22;51092;50.874;7.024;2023-02-28T04:20:43;-1.00;62.40
30889;DHT22;51092;50.874;7.024;2023-02-28T04:21:46;-1.00;62.40
30889;DHT22;51092;50.874;7.024;2023-02-28T04:22:50;-1.00;62.40
30889;DHT22;51092;50.874;7.024;2023-02-28T04:23:52;-1.00;62.40
30889;DHT22;51092;50.874;7.024;2023-02-28T04:24:54;-1.00;62.40
30889;DHT22;51092;50.874;7.024;2023-02-28T04:25:55;-1.10;62.80
30889;DHT22;51092;50.874;7.024;2023-02-28T04:26:58;-1.10;62.80
30889;DHT22;51092;50.874;7.024;2023-02-28T04:27:59;-1.10;63.00
30889;DHT22;51092;50.874;7.024;2023-02-28T04:29:02;-1.10;62.80
30889;DHT22;51092;50.874;7.024;2023-02-28T04:30:06;-1.20;63.00
30889;DHT22;51092;50.874;7.024;2023-02-28T04:31:09;-1.20;63.10
30889;DHT22;51092;50.874;7.024;2023-02-28T04:32:10;-1.20;63.10
30889;DHT22;51092;50.874;7.024;2023-02-28T04:33:12;-1.20;63.10
30889;DHT22;51092;50.874;7.024;2023-02-28T04:34:13;-1.20;63.10
30889;DHT22;51092;50.874;7.024;2023-02-28T04:35:16;-1.20;63.10
30889;DHT22;51092;50.874;7.024;2023-02-28T04:36:18;-1.10;62.70
30889;DHT22;51092;50.874;7.024;2023-02-28T04:37:20;-1.10;62.70
30889;DHT22;51092;50.874;7.024;2023-02-28T04:38:23;-1.10;62.60
30889;DHT22;51092;50.874;7.024;2023-02-28T04:39:26;-1.10;62.50
30889;DHT22;51092;50.874;7.024;2023-02-28T04:40:27;-1.10;62.50
30889;DHT22;51092;50.874;7.024;2023-02-28T04:41:30;-1.00;62.20
30889;DHT22;51092;50.874;7.024;2023-02-28T04:42:31;-1.00;62.10
30889;DHT22;51092;50.874;7.024;2023-02-28T04:43:36;-1.00;62.00
30889;DHT22;51092;50.874;7.024;2023-02-28T04:44:38;-1.00;61.90
30889;DHT22;51092;50.874;7.024;2023-02-28T04:45:40;-1.00;61.80
30889;DHT22;51092;50.874;7.024;2023-02-28T04:46:43;-0.90;61.40
30889;DHT22;51092;50.874;7.024;2023-02-28T04:47:46;-0.90;61.40
30889;DHT22;51092;50.874;7.024;2023-02-28T04:48:47;-0.90;61.30
30889;DHT22;51092;50.874;7.024;2023-02-28T04:49:50;-0.90;61.20
30889;DHT22;51092;50.874;7.024;2023-02-28T04:50:52;-0.80;61.10
30889;DHT22;51092;50.874;7.024;2023-02-28T04:51:54;-0.90;61.20
30889;DHT22;51092;50.874;7.024;2023-02-28T04:52:56;-0.90;61.10
30889;DHT22;51092;50.874;7.024;2023-02-28T04:54:00;-0.90;61.30
30889;DHT22;51092;50.874;7.024;2023-02-28T04:55:02;-0.80;61.00
30889;DHT22;51092;50.874;7.024;2023-02-28T04:56:05;-0.90;61.20
30889;DHT22;51092;50.874;7.024;2023-02-28T04:57:07;-0.90;61.30
30889;DHT22;51092;50.874;7.024;2023-02-28T04:58:09;-0.80;61.00
30889;DHT22;51092;50.874;7.024;2023-02-28T04:59:11;-0.90;61.20
30889;DHT22;51092;50.874;7.024;2023-02-28T05:00:14;-0.80;61.00
30889;DHT22;51092;50.874;7.024;2023-02-28T05:01:20;-0.80;61.00
30889;DHT22;51092;50.874;7.024;2023-02-28T05:02:24;-0.80;60.90
30889;DHT22;51092;50.874;7.024;2023-02-28T05:03:25;-0.80;61.00
30889;DHT22;51092;50.874;7.024;2023-02-28T05:04:28;-0.80;61.10
30889;DHT22;51092;50.874;7.024;2023-02-28T05:05:29;-0.70;60.60
30889;DHT22;51092;50.874;7.024;2023-02-28T05:06:33;-0.70;60.50
30889;DHT22;51092;50.874;7.024;2023-02-28T05:07:34;-0.70;60.50
30889;DHT22;51092;50.874;7.024;2023-02-28T05:08:37;-0.70;60.50
30889;DHT22;51092;50.874;7.024;2023-02-28T05:09:40;-0.70;60.40
30889;DHT22;51092;50.874;7.024;2023-02-28T05:10:43;-0.70;60.30
30889;DHT22;51092;50.874;7.024;2023-02-28T05:11:44;-0.70;60.30
30889;DHT22;51092;50.874;7.024;2023-02-28T05:12:47;-0.70;60.30
30889;DHT22;51092;50.874;7.024;2023-02-28T05:13:49;-0.70;60.30
30889;DHT22;51092;50.874;7.024;2023-02-28T05:14:52;-0.60;60.00
30889;DHT22;51092;50.874;7.024;2023-02-28T05:15:54;-0.60;60.00
30889;DHT22;51092;50.874;7.024;2023-02-28T05:16:56;-0.60;60.10
30889;DHT22;51092;50.874;7.024;2023-02-28T05:17:57;-0.60;60.00
30889;DHT22;51092;50.874;7.024;2023-02-28T05:19:00;-0.60;60.00
30889;DHT22;51092;50.874;7.024;2023-02-28T05:20:02;-0.60;60.00
30889;DHT22;51092;50.874;7.024;2023-02-28T05:21:12;-0.70;60.30
30889;DHT22;51092;50.874;7.024;2023-02-28T05:22:19;-0.60;60.00
30889;DHT22;51092;50.874;7.024;2023-02-28T05:23:23;-0.60;59.90
30889;DHT22;51092;50.874;7.024;2023-02-28T05:24:24;-0.50;59.90
30889;DHT22;51092;50.874;7.024;2023-02-28T05:25:28;-0.60;59.90
30889;DHT22;51092;50.874;7.024;2023-02-28T05:26:29;-0.60;59.90
30889;DHT22;51092;50.874;7.024;2023-02-28T05:27:33;-0.60;59.90
30889;DHT22;51092;50.874;7.024;2023-02-28T05:28:34;-0.60;59.90
30889;DHT22;51092;50.874;7.024;2023-02-28T05:29:37;-0.50;59.90
30889;DHT22;51092;50.874;7.024;2023-02-28T05:30:42;-0.60;59.90
30889;DHT22;51092;50.874;7.024;2023-02-28T05:31:44;-0.50;59.90
30889;DHT22;51092;50.874;7.024;2023-02-28T05:32:50;-0.50;59.90
30889;DHT22;51092;50.874;7.024;2023-02-28T05:33:52;-0.50;59.90
30889;DHT22;51092;50.874;7.024;2023-02-28T05:34:54;-0.50;59.90
30889;DHT22;51092;50.874;7.024;2023-02-28T05:35:56;-0.50;59.90
30889;DHT22;51092;50.874;7.024;2023-02-28T05:36:58;-0.60;59.90
30889;DHT22;51092;50.874;7.024;2023-02-28T05:38:00;-0.60;59.90
30889;DHT22;51092;50.874;7.024;2023-02-28T05:39:02;-0.50;59.90
30889;DHT22;51092;50.874;7.024;2023-02-28T05:40:05;-0.50;59.90
30889;DHT22;51092;50.874;7.024;2023-02-28T05:41:12;-0.50;59.90
30889;DHT22;51092;50.874;7.024;2023-02-28T05:42:14;-0.60;59.90
30889;DHT22;51092;50.874;7.024;2023-02-28T05:43:16;-0.60;59.90
30889;DHT22;51092;50.874;7.024;2023-02-28T05:44:18;-0.50;59.90
30889;DHT22;51092;50.874;7.024;2023-02-28T05:47:39;-0.50;59.80
30889;DHT22;51092;50.874;7.024;2023-02-28T05:48:42;-0.50;59.80
30889;DHT22;51092;50.874;7.024;2023-02-28T05:49:46;-0.50;59.80
30889;DHT22;51092;50.874;7.024;2023-02-28T05:50:49;-0.50;59.80
30889;DHT22;51092;50.874;7.024;2023-02-28T05:51:50;-0.50;59.80
30889;DHT22;51092;50.874;7.024;2023-02-28T05:52:53;-0.40;59.80
30889;DHT22;51092;50.874;7.024;2023-02-28T05:53:54;-0.40;59.80
30889;DHT22;51092;50.874;7.024;2023-02-28T05:55:00;-0.30;59.70
30889;DHT22;51092;50.874;7.024;2023-02-28T05:56:02;-0.30;59.70
30889;DHT22;51092;50.874;7.024;2023-02-28T05:57:04;-0.30;59.70
30889;DHT22;51092;50.874;7.024;2023-02-28T05:58:06;-0.30;59.70
30889;DHT22;51092;50.874;7.024;2023-02-28T05:59:09;-0.30;59.70
30889;DHT22;51092;50.874;7.024;2023-02-28T06:00:12;-0.30;59.70
30889;DHT22;51092;50.874;7.024;2023-02-28T06:01:26;-0.30;59.70
30889;DHT22;51092;50.874;7.024;2023-02-28T06:02:31;-0.30;59.70
30889;DHT22;51092;50.874;7.024;2023-02-28T06:03:35;-0.30;59.70
30889;DHT22;51092;50.874;7.024;2023-02-28T06:04:36;-0.30;59.70
30889;DHT22;51092;50.874;7.024;2023-02-28T06:05:39;-0.30;59.70
30889;DHT22;51092;50.874;7.024;2023-02-28T06:06:40;-0.30;59.70
30889;DHT22;51092;50.874;7.024;2023-02-28T06:07:43;-0.30;59.70
30889;DHT22;51092;50.874;7.024;2023-02-28T06:08:45;-0.30;59.70
30889;DHT22;51092;50.874;7.024;2023-02-28T06:09:48;-0.30;59.70
30889;DHT22;51092;50.874;7.024;2023-02-28T06:10:50;-0.30;59.70
30889;DHT22;51092;50.874;7.024;2023-02-28T06:11:51;-0.30;59.70
30889;DHT22;51092;50.874;7.024;2023-02-28T06:12:55;-0.20;59.60
30889;DHT22;51092;50.874;7.024;2023-02-28T06:13:57;-0.20;59.60
30889;DHT22;51092;50.874;7.024;2023-02-28T06:15:00;-0.20;59.60
30889;DHT22;51092;50.874;7.024;2023-02-28T06:16:02;-0.20;59.60
30889;DHT22;51092;50.874;7.024;2023-02-28T06:17:05;-0.30;59.60
30889;DHT22;51092;50.874;7.024;2023-02-28T06:18:07;-0.30;59.60
30889;DHT22;51092;50.874;7.024;2023-02-28T06:19:10;-0.30;59.60
30889;DHT22;51092;50.874;7.024;2023-02-28T06:20:13;-0.30;59.70
30889;DHT22;51092;50.874;7.024;2023-02-28T06:21:15;-0.40;59.70
30889;DHT22;51092;50.874;7.024;2023-02-28T06:22:17;-0.40;59.70
30889;DHT22;51092;50.874;7.024;2023-02-28T06:23:19;-0.40;59.70
30889;DHT22;51092;50.874;7.024;2023-02-28T06:24:23;-0.40;59.70
30889;DHT22;51092;50.874;7.024;2023-02-28T06:25:25;-0.40;59.70
30889;DHT22;51092;50.874;7.024;2023-02-28T06:26:27;-0.40;59.70
30889;DHT22;51092;50.874;7.024;2023-02-28T06:27:30;-0.40;59.70
30889;DHT22;51092;50.874;7.024;2023-02-28T06:28:32;-0.40;59.70
30889;DHT22;51092;50.874;7.024;2023-02-28T06:29:34;-0.50;59.80
30889;DHT22;51092;50.874;7.024;2023-02-28T06:30:37;-0.50;59.80
30889;DHT22;51092;50.874;7.024;2023-02-28T06:31:38;-0.50;59.80
30889;DHT22;51092;50.874;7.024;2023-02-28T06:32:41;-0.50;59.80
30889;DHT22;51092;50.874;7.024;2023-02-28T06:33:43;-0.40;59.70
30889;DHT22;51092;50.874;7.024;2023-02-28T06:34:47;-0.40;59.70
30889;DHT22;51092;50.874;7.024;2023-02-28T06:35:50;-0.50;59.70
30889;DHT22;51092;50.874;7.024;2023-02-28T06:36:53;-0.40;59.70
30889;DHT22;51092;50.874;7.024;2023-02-28T06:37:55;-0.40;59.70
30889;DHT22;51092;50.874;7.024;2023-02-28T06:38:57;-0.40;59.70
30889;DHT22;51092;50.874;7.024;2023-02-28T06:40:00;-0.40;59.70
30889;DHT22;51092;50.874;7.024;2023-02-28T06:41:02;-0.40;59.70
30889;DHT22;51092;50.874;7.024;2023-02-28T06:42:05;-0.50;59.80
30889;DHT22;51092;50.874;7.024;2023-02-28T06:43:06;-0.50;59.70
30889;DHT22;51092;50.874;7.024;2023-02-28T06:44:12;-0.50;59.70
30889;DHT22;51092;50.874;7.024;2023-02-28T06:45:15;-0.40;59.70
30889;DHT22;51092;50.874;7.024;2023-02-28T06:46:18;-0.40;59.70
30889;DHT22;51092;50.874;7.024;2023-02-28T06:47:20;-0.40;59.70
30889;DHT22;51092;50.874;7.024;2023-02-28T06:48:22;-0.50;59.70
30889;DHT22;51092;50.874;7.024;2023-02-28T06:49:24;-0.40;59.70
30889;DHT22;51092;50.874;7.024;2023-02-28T06:50:30;-0.40;59.70
30889;DHT22;51092;50.874;7.024;2023-02-28T06:51:33;-0.40;59.70
30889;DHT22;51092;50.874;7.024;2023-02-28T06:52:36;-0.40;59.70
30889;DHT22;51092;50.874;7.024;2023-02-28T06:53:38;-0.40;59.70
30889;DHT22;51092;50.874;7.024;2023-02-28T06:54:41;-0.40;59.70
30889;DHT22;51092;50.874;7.024;2023-02-28T06:55:42;-0.40;59.70
30889;DHT22;51092;50.874;7.024;2023-02-28T06:56:45;-0.40;59.70
30889;DHT22;51092;50.874;7.024;2023-02-28T06:57:46;-0.30;59.70